createdAt,value
2019-05-22T00:02:39.956Z,12.28
2019-05-22T00:07:46.997Z,13.05
2019-05-22T00:12:54.336Z,14.03
2019-05-22T00:18:03.750Z,13.32
2019-05-22T00:23:12.773Z,14.75
2019-05-22T00:28:19.744Z,14.43
2019-05-22T00:33:26.380Z,15.10
2019-05-22T00:38:34.018Z,15.03
2019-05-22T00:43:42.653Z,15.50
2019-05-22T00:48:49.053Z,16.32
2019-05-22T00:54:13.486Z,16.33
2019-05-22T00:59:27.162Z,15.85
2019-05-22T01:04:38.420Z,15.23
2019-05-22T01:09:46.764Z,15.90
2019-05-22T01:14:53.747Z,16.12
2019-05-22T01:20:03.227Z,16.73
2019-05-22T01:25:11.661Z,16.95
2019-05-22T01:30:33.789Z,17.40
2019-05-22T01:35:44.788Z,17.03
2019-05-22T01:40:57.730Z,15.80
2019-05-22T01:46:06.671Z,17.07
2019-05-22T01:51:14.702Z,18.45
2019-05-22T01:56:21.565Z,18.05
2019-05-22T02:01:27.957Z,18.65
2019-05-22T02:06:36.585Z,19.40
2019-05-22T02:11:45.848Z,20.15
2019-05-22T02:16:56.713Z,21.17
2019-05-22T02:22:04.033Z,21.37
2019-05-22T02:27:11.552Z,22.17
2019-05-22T02:32:20.689Z,22.27
2019-05-22T02:37:28.661Z,21.65
2019-05-22T02:42:35.098Z,22.20
2019-05-22T02:47:43.059Z,21.40
2019-05-22T02:52:50.167Z,20.90
2019-05-22T02:57:56.809Z,18.35
2019-05-22T03:03:05.195Z,18.33
2019-05-22T03:08:11.732Z,18.65
2019-05-22T03:13:21.514Z,19.48
2019-05-22T03:18:28.487Z,17.90
2019-05-22T03:23:36.355Z,17.40
2019-05-22T03:28:43.207Z,17.20
2019-05-22T03:33:50.161Z,18.02
2019-05-22T03:38:58.430Z,17.03
2019-05-22T03:44:06.773Z,16.57
2019-05-22T03:49:29.159Z,17.77
2019-05-22T03:54:25.763Z,19.00
2019-05-22T03:59:31.972Z,20.72
2019-05-22T04:04:41.003Z,22.57
2019-05-22T04:09:49.746Z,23.67
2019-05-22T04:14:57.056Z,25.12
2019-05-22T04:20:07.792Z,26.70
2019-05-22T04:25:14.801Z,28.17
2019-05-22T04:30:21.599Z,29.27
2019-05-22T04:35:28.062Z,31.95
2019-05-22T04:40:55.497Z,34.18
2019-05-22T04:46:03.013Z,34.35
2019-05-22T04:51:38.997Z,35.50
2019-05-22T04:56:45.114Z,35.97
2019-05-22T05:01:51.558Z,35.90
2019-05-22T05:06:57.854Z,35.28
2019-05-22T05:12:05.523Z,36.27
2019-05-22T05:17:13.617Z,36.93
2019-05-22T05:22:26.558Z,37.23
2019-05-22T05:27:33.854Z,36.17
2019-05-22T05:32:41.190Z,38.70
2019-05-22T05:37:47.979Z,37.17
2019-05-22T05:42:55.270Z,37.97
2019-05-22T05:48:04.122Z,35.05
2019-05-22T05:53:20.224Z,35.03
2019-05-22T05:58:28.575Z,35.63
2019-05-22T06:03:40.051Z,34.53
2019-05-22T06:08:48.087Z,35.33
2019-05-22T06:13:55.309Z,32.90
2019-05-22T06:19:01.787Z,33.73
2019-05-22T06:24:30.065Z,32.73
2019-05-22T06:29:43.932Z,33.17
2019-05-22T06:34:51.124Z,34.60
2019-05-22T06:39:58.857Z,33.70
2019-05-22T06:45:06.053Z,34.03
2019-05-22T06:50:13.392Z,33.20
2019-05-22T06:55:19.812Z,32.67
2019-05-22T07:00:27.406Z,33.50
2019-05-22T07:05:33.849Z,32.05
2019-05-22T07:10:41.693Z,32.37
2019-05-22T07:15:52.265Z,30.08
2019-05-22T07:20:59.654Z,29.77
2019-05-22T07:26:06.776Z,28.80
2019-05-22T07:31:13.405Z,27.60
2019-05-22T07:36:21.953Z,25.60
2019-05-22T07:41:28.541Z,25.57
2019-05-22T07:46:34.746Z,27.67
2019-05-22T07:51:53.146Z,27.30
2019-05-22T07:56:49.856Z,27.57
2019-05-22T08:01:56.195Z,27.83
2019-05-22T08:07:03.593Z,28.20
2019-05-22T08:12:12.127Z,26.65
2019-05-22T08:17:20.493Z,32.23
2019-05-22T08:22:28.413Z,27.70
2019-05-22T08:27:36.044Z,27.35
2019-05-22T08:32:43.718Z,26.03
2019-05-22T08:37:51.395Z,24.50
2019-05-22T08:42:57.882Z,24.03
2019-05-22T08:48:04.360Z,24.80
2019-05-22T08:53:14.040Z,24.30
2019-05-22T08:58:21.685Z,23.47
2019-05-22T09:03:28.596Z,23.73
2019-05-22T09:08:34.874Z,24.10
2019-05-22T09:13:41.431Z,23.80
2019-05-22T09:18:48.137Z,24.43
2019-05-22T09:23:56.034Z,24.50
2019-05-22T09:29:02.530Z,25.10
2019-05-22T09:34:08.546Z,24.53
2019-05-22T09:39:15.717Z,25.40
2019-05-22T09:44:22.499Z,24.85
2019-05-22T09:49:29.502Z,25.53
2019-05-22T09:54:36.063Z,25.75
2019-05-22T09:59:42.164Z,26.45
2019-05-22T10:04:48.595Z,25.43
2019-05-22T10:09:54.754Z,25.40
2019-05-22T10:15:01.473Z,25.77
2019-05-22T10:20:10.802Z,24.98
2019-05-22T10:25:17.537Z,25.33
2019-05-22T10:30:25.291Z,26.37
2019-05-22T10:35:33.313Z,26.90
2019-05-22T10:40:39.758Z,25.17
2019-05-22T10:45:46.298Z,25.63
2019-05-22T10:50:52.933Z,27.05
2019-05-22T10:55:59.878Z,27.27
2019-05-22T11:01:08.545Z,27.20
2019-05-22T11:06:15.151Z,29.15
2019-05-22T11:11:21.830Z,28.87
2019-05-22T11:16:28.985Z,27.67
2019-05-22T11:21:35.869Z,28.43
2019-05-22T11:26:42.028Z,26.77
2019-05-22T11:31:48.851Z,26.70
2019-05-22T11:36:55.909Z,26.40
2019-05-22T11:42:03.110Z,25.12
2019-05-22T11:47:11.038Z,23.27
2019-05-22T11:52:18.665Z,25.37
2019-05-22T11:57:25.936Z,23.57
2019-05-22T12:02:32.877Z,23.67
2019-05-22T12:07:41.826Z,22.53
2019-05-22T12:12:49.649Z,21.47
2019-05-22T12:17:56.114Z,20.72
2019-05-22T12:23:02.682Z,18.87
2019-05-22T12:28:09.057Z,19.15
2019-05-22T12:33:15.313Z,19.70
2019-05-22T12:38:26.570Z,19.02
2019-05-22T12:43:32.697Z,15.70
2019-05-22T12:48:40.749Z,15.80
2019-05-22T12:53:47.718Z,16.10
2019-05-22T12:58:55.682Z,15.08
2019-05-22T13:04:04.965Z,14.80
2019-05-22T13:09:12.318Z,13.37
2019-05-22T13:14:19.246Z,12.37
2019-05-22T13:19:26.414Z,11.30
2019-05-22T13:24:35.222Z,10.43
2019-05-22T13:29:42.825Z,9.80
2019-05-22T13:34:49.999Z,8.25
2019-05-22T13:39:56.559Z,8.00
2019-05-22T13:45:04.857Z,7.30
2019-05-22T13:50:13.282Z,7.50
2019-05-22T13:55:20.586Z,6.92
2019-05-22T14:00:27.488Z,6.80
2019-05-22T14:05:35.323Z,6.12
2019-05-22T14:10:43.995Z,5.70
2019-05-22T14:15:56.367Z,5.70
2019-05-22T14:20:58.337Z,5.20
2019-05-22T14:26:04.779Z,4.95
2019-05-22T14:31:11.988Z,5.62
2019-05-22T14:36:19.355Z,6.33
2019-05-22T14:41:26.545Z,5.60
2019-05-22T14:46:33.731Z,5.30
2019-05-22T14:51:40.580Z,5.27
2019-05-22T14:56:46.828Z,5.62
2019-05-22T15:01:53.574Z,5.97
2019-05-22T15:07:00.486Z,7.07
2019-05-22T15:12:06.967Z,7.20
2019-05-22T15:17:31.119Z,7.80
2019-05-22T15:22:23.016Z,8.43
2019-05-22T15:27:29.949Z,8.00
2019-05-22T15:32:36.320Z,8.20
2019-05-22T15:37:43.666Z,10.23
2019-05-22T15:42:50.329Z,12.00
2019-05-22T15:47:58.411Z,12.50
2019-05-22T15:53:11.095Z,13.65
2019-05-22T15:58:17.956Z,13.60
2019-05-22T16:03:28.073Z,14.23
2019-05-22T16:08:34.810Z,14.33
2019-05-22T16:13:42.032Z,15.48
2019-05-22T16:18:49.937Z,15.23
2019-05-22T16:23:58.636Z,17.03
2019-05-22T16:29:07.006Z,16.12
2019-05-22T16:34:14.570Z,15.83
2019-05-22T16:39:21.770Z,16.62
2019-05-22T16:44:29.122Z,13.65
2019-05-22T16:49:36.913Z,12.60
2019-05-22T16:54:43.505Z,10.93
2019-05-22T16:59:51.141Z,8.83
2019-05-22T17:04:57.468Z,8.97
2019-05-22T17:10:04.653Z,8.13
2019-05-22T17:15:15.641Z,8.33
2019-05-22T17:20:24.769Z,8.70
2019-05-22T17:25:31.679Z,8.23
2019-05-22T17:30:38.522Z,7.10
2019-05-22T17:35:46.032Z,7.70
2019-05-22T17:40:52.185Z,7.60
2019-05-22T17:45:58.480Z,8.40
2019-05-22T17:51:05.228Z,8.70
2019-05-22T17:56:11.645Z,8.37
2019-05-22T18:01:18.697Z,8.65
2019-05-22T18:06:25.730Z,11.88
2019-05-22T18:11:31.943Z,8.93
2019-05-22T18:16:38.284Z,9.73
2019-05-22T18:21:45.151Z,10.80
2019-05-22T18:26:51.473Z,11.70
2019-05-22T18:32:01.871Z,10.58
2019-05-22T18:37:11.378Z,10.30
2019-05-22T18:42:21.442Z,9.90
2019-05-22T18:47:28.142Z,9.63
2019-05-22T18:52:41.074Z,9.87
2019-05-22T18:57:43.409Z,9.95
2019-05-22T19:02:49.607Z,11.73
2019-05-22T19:07:56.387Z,10.50
2019-05-22T19:13:02.728Z,10.72
2019-05-22T19:18:09.481Z,10.83
2019-05-22T19:23:16.039Z,12.87
2019-05-22T19:28:22.622Z,13.20
2019-05-22T19:33:29.311Z,13.15
2019-05-22T19:38:35.800Z,13.37
2019-05-22T19:43:42.181Z,12.90
2019-05-22T19:48:48.972Z,13.53
2019-05-22T19:53:56.067Z,12.00
2019-05-22T19:59:02.908Z,12.40
2019-05-22T20:04:09.931Z,12.40
2019-05-22T20:09:17.096Z,11.20
2019-05-22T20:14:24.362Z,11.17
2019-05-22T20:19:30.846Z,11.48
2019-05-22T20:24:37.641Z,10.60
2019-05-22T20:29:45.522Z,11.12
2019-05-22T20:34:52.054Z,11.00
2019-05-22T20:39:59.654Z,11.10
2019-05-22T20:45:07.008Z,11.67
2019-05-22T20:50:14.506Z,11.57
2019-05-22T20:55:21.268Z,11.57
2019-05-22T21:00:29.071Z,12.80
2019-05-22T21:05:37.487Z,11.77
2019-05-22T21:10:46.999Z,10.43
2019-05-22T21:16:07.456Z,12.05
2019-05-22T21:21:16.024Z,12.90
2019-05-22T21:26:23.253Z,13.77
2019-05-22T21:31:30.288Z,14.47
2019-05-22T21:36:37.132Z,15.30
2019-05-22T21:41:44.041Z,15.00
2019-05-22T21:46:51.906Z,14.03
2019-05-22T21:51:59.500Z,13.00
2019-05-22T21:57:06.711Z,13.08
2019-05-22T22:02:23.186Z,12.43
2019-05-22T22:07:30.513Z,12.17
2019-05-22T22:12:37.181Z,11.88
2019-05-22T22:17:46.176Z,11.40
2019-05-22T22:22:52.563Z,11.50
2019-05-22T22:27:58.797Z,12.33
2019-05-22T22:33:11.021Z,12.63
2019-05-22T22:38:17.938Z,12.80
2019-05-22T22:43:27.690Z,13.50
2019-05-22T22:48:36.741Z,13.32
2019-05-22T22:53:43.902Z,13.18
2019-05-22T22:58:50.704Z,12.37
2019-05-22T23:03:59.085Z,12.33
2019-05-22T23:09:08.292Z,11.97
2019-05-22T23:14:15.428Z,13.15
2019-05-22T23:19:33.658Z,12.60
2019-05-22T23:30:31.989Z,12.88
2019-05-22T23:35:38.240Z,12.33
2019-05-22T23:40:46.036Z,12.10
2019-05-22T23:45:52.897Z,12.10
2019-05-22T23:50:59.827Z,12.23
2019-05-22T23:56:06.773Z,12.23
